createdAt,value
2022-09-29T00:00:08.384Z,23.3
2022-09-29T00:02:09.673Z,18.2
2022-09-29T00:04:10.810Z,18.5
2022-09-29T00:06:12.041Z,26.4
2022-09-29T00:10:17.760Z,21.8
2022-09-29T00:16:21.493Z,23.3
2022-09-29T00:18:22.876Z,27.1
2022-09-29T00:20:23.870Z,19.5
2022-09-29T00:26:32.346Z,16.6
2022-09-29T00:28:33.582Z,19.4
2022-09-29T00:30:34.799Z,25.8
2022-09-29T00:32:36.026Z,37.2
2022-09-29T00:34:37.262Z,18
2022-09-29T00:36:41.746Z,19
2022-09-29T00:38:42.986Z,18.4
2022-09-29T00:40:44.289Z,16.9
2022-09-29T00:42:45.423Z,16.9
2022-09-29T00:46:47.890Z,19.4
2022-09-29T00:48:49.094Z,15.4
2022-09-29T00:57:59.529Z,25
2022-09-29T01:00:00.799Z,23.1
2022-09-29T01:02:02.037Z,25.5
2022-09-29T01:04:06.480Z,19.3
2022-09-29T01:06:07.685Z,26.4
2022-09-29T01:08:08.903Z,17
2022-09-29T01:10:10.153Z,20.6
2022-09-29T01:12:11.364Z,21.1
2022-09-29T01:16:13.933Z,21.1
2022-09-29T01:18:18.309Z,22.4
2022-09-29T01:22:20.704Z,22.4
2022-09-29T01:24:21.947Z,21.8
2022-09-29T01:26:23.164Z,21.1
2022-09-29T01:30:25.610Z,17.7
2022-09-29T01:34:31.284Z,16.6
2022-09-29T01:36:32.500Z,19.7
2022-09-29T01:38:33.708Z,21.3
2022-09-29T01:40:34.990Z,22.4
2022-09-29T01:42:36.137Z,20.9
2022-09-29T01:44:37.355Z,20.3
2022-09-29T01:46:41.833Z,21.6
2022-09-29T01:48:43.072Z,22.3
2022-09-29T01:50:44.288Z,18.2
2022-09-29T01:53:47.774Z,20.4
2022-09-29T01:55:49.008Z,17.4
2022-09-29T01:57:50.256Z,18.9
2022-09-29T01:59:54.717Z,18
2022-09-29T02:02:00.059Z,15.9
2022-09-29T02:03:57.158Z,16.5
2022-09-29T02:10:00.827Z,20
2022-09-29T02:12:02.044Z,19.3
2022-09-29T02:14:06.519Z,16.4
2022-09-29T02:16:07.840Z,15.3
2022-09-29T02:18:08.947Z,20.4
2022-09-29T02:20:10.146Z,15.6
2022-09-29T02:22:11.355Z,17.5
2022-09-29T02:24:12.703Z,17.7
2022-09-29T02:26:13.784Z,20.1
2022-09-29T02:32:20.684Z,16
2022-09-29T02:34:21.920Z,19.7
2022-09-29T02:36:23.118Z,20.8
2022-09-29T02:38:24.335Z,27.6
2022-09-29T02:40:25.669Z,18.7
2022-09-29T02:42:30.064Z,17.3
2022-09-29T02:44:31.276Z,14.6
2022-09-29T02:46:32.463Z,18.5
2022-09-29T02:50:56.194Z,19.1
2022-09-29T02:52:57.389Z,20.6
2022-09-29T02:55:01.861Z,19.6
2022-09-29T02:57:03.063Z,16.3
2022-09-29T02:59:04.286Z,15.2
2022-09-29T03:01:05.571Z,19.4
2022-09-29T03:03:06.691Z,23.9
2022-09-29T03:05:07.915Z,26.3
2022-09-29T03:07:09.119Z,20.6
2022-09-29T03:09:13.581Z,17.1
2022-09-29T03:11:14.808Z,22
2022-09-29T03:13:16.041Z,18.4
2022-09-29T03:15:17.236Z,15.9
2022-09-29T03:17:18.438Z,15.3
2022-09-29T03:19:19.651Z,16.1
2022-09-29T03:21:20.869Z,18.4
2022-09-29T03:23:25.339Z,19.5
2022-09-29T03:25:26.528Z,16.5
2022-09-29T03:27:27.769Z,13.7
2022-09-29T03:29:28.974Z,16.7
2022-09-29T03:31:30.239Z,18.7
2022-09-29T03:33:31.391Z,15.2
2022-09-29T03:35:32.616Z,19.1
2022-09-29T03:37:37.104Z,19.1
2022-09-29T03:42:41.741Z,25.1
2022-09-29T03:44:42.945Z,19.7
2022-09-29T03:46:44.175Z,28.3
2022-09-29T03:48:45.388Z,17.4
2022-09-29T03:50:49.850Z,19.4
2022-09-29T03:52:51.095Z,18.7
2022-09-29T03:54:52.292Z,21.7
2022-09-29T03:56:53.522Z,18.3
2022-09-29T03:58:54.736Z,16.7
2022-09-29T04:00:56.012Z,15.2
2022-09-29T04:02:57.130Z,21.2
2022-09-29T04:05:01.593Z,20.2
2022-09-29T04:07:02.774Z,15
2022-09-29T04:09:03.982Z,15.3
2022-09-29T04:11:05.205Z,15.5
2022-09-29T04:13:06.437Z,23.2
2022-09-29T04:15:07.615Z,23.9
2022-09-29T04:17:08.841Z,15.6
2022-09-29T04:19:13.297Z,19.1
2022-09-29T04:21:14.520Z,23
2022-09-29T04:23:15.710Z,16.9
2022-09-29T04:25:16.942Z,14
2022-09-29T04:31:20.674Z,20.5
2022-09-29T04:33:25.017Z,13.9
2022-09-29T04:35:26.244Z,20.5
2022-09-29T04:37:27.454Z,16.7
2022-09-29T04:40:30.952Z,11.3
2022-09-29T04:42:32.128Z,19
2022-09-29T04:46:37.789Z,19.1
2022-09-29T04:48:39.001Z,15.2
2022-09-29T04:50:40.207Z,15.4
2022-09-29T04:52:41.431Z,12.9
2022-09-29T04:54:42.629Z,12.4
2022-09-29T05:02:50.727Z,24.3
2022-09-29T05:04:51.953Z,14
2022-09-29T05:06:53.169Z,16.1
2022-09-29T05:08:54.368Z,24.5
2022-09-29T05:10:55.706Z,15.1
2022-09-29T05:12:56.773Z,12.3
2022-09-29T05:15:01.241Z,17.9
2022-09-29T05:17:02.454Z,20.5
2022-09-29T05:19:03.630Z,20.6
2022-09-29T05:21:26.629Z,17.1
2022-09-29T05:23:06.038Z,16.1
2022-09-29T05:25:07.199Z,19.2
2022-09-29T05:27:08.368Z,23.1
2022-09-29T05:29:12.802Z,29.5
2022-09-29T05:31:14.226Z,18.2
2022-09-29T05:33:15.192Z,21.4
2022-09-29T05:34:17.419Z,22.4
2022-09-29T05:36:18.645Z,20.6
2022-09-29T05:40:21.095Z,21.7
2022-09-29T05:42:25.505Z,23
2022-09-29T05:44:26.697Z,23.1
2022-09-29T05:46:27.891Z,21.5
2022-09-29T05:48:29.103Z,19.7
2022-09-29T05:50:30.329Z,23.9
2022-09-29T05:52:31.514Z,23.8
2022-09-29T05:54:32.696Z,23.1
2022-09-29T05:56:39.752Z,25.2
2022-09-29T06:02:40.842Z,19.4
2022-09-29T06:04:41.966Z,27.7
2022-09-29T06:06:43.189Z,24.7
2022-09-29T06:08:44.370Z,27.7
2022-09-29T06:12:51.590Z,25.4
2022-09-29T06:16:54.055Z,20.4
2022-09-29T06:18:55.149Z,36.7
2022-09-29T06:25:01.994Z,26.8
2022-09-29T06:27:03.187Z,24
2022-09-29T06:29:04.395Z,24.6
2022-09-29T06:31:32.919Z,24.6
2022-09-29T06:33:34.082Z,23.3
2022-09-29T06:35:35.294Z,27.2
2022-09-29T06:37:39.770Z,25
2022-09-29T06:39:40.958Z,29.4
2022-09-29T06:41:42.148Z,22.1
2022-09-29T06:43:43.362Z,20.2
2022-09-29T06:45:44.666Z,28.8
2022-09-29T06:47:45.797Z,27.8
2022-09-29T06:49:47.004Z,35.2
2022-09-29T06:51:51.467Z,35.1
2022-09-29T06:53:57.896Z,47.5
2022-09-29T06:55:53.913Z,36.9
2022-09-29T06:57:56.445Z,34.7
2022-09-29T06:59:56.356Z,31.9
2022-09-29T07:03:58.753Z,29
2022-09-29T07:06:19.597Z,28.5
2022-09-29T07:12:06.885Z,25.8
2022-09-29T07:14:08.099Z,22.8
2022-09-29T07:16:09.413Z,34.8
2022-09-29T07:18:10.535Z,25.6
2022-09-29T07:20:15.007Z,37.2
2022-09-29T07:22:16.212Z,29.8
2022-09-29T07:24:17.429Z,28.6
2022-09-29T07:25:46.946Z,31.9
2022-09-29T07:27:20.917Z,30.7
2022-09-29T07:29:22.285Z,30.9
2022-09-29T07:35:29.037Z,30.2
2022-09-29T07:41:32.679Z,22.3
2022-09-29T07:43:33.903Z,32.8
2022-09-29T07:45:35.196Z,29.2
2022-09-29T07:47:39.592Z,24
2022-09-29T07:49:40.787Z,40.2
2022-09-29T07:51:42.014Z,39.1
2022-09-29T07:53:43.224Z,31
2022-09-29T07:55:44.443Z,27.8
2022-09-29T07:57:45.676Z,31.4
2022-09-29T07:59:52.361Z,32.1
2022-09-29T08:01:51.422Z,31.3
2022-09-29T08:03:52.576Z,32.1
2022-09-29T08:05:53.802Z,28.6
2022-09-29T08:07:55.047Z,33.5
2022-09-29T08:09:58.167Z,27.2
2022-09-29T08:12:05.635Z,27.7
2022-09-29T08:13:58.836Z,24
2022-09-29T08:16:03.238Z,30.2
2022-09-29T08:18:04.452Z,33.9
2022-09-29T08:20:05.699Z,25.8
2022-09-29T08:23:09.165Z,26.3
2022-09-29T08:25:10.383Z,29.1
2022-09-29T08:27:18.209Z,22.2
2022-09-29T08:29:17.074Z,30.4
2022-09-29T08:31:17.389Z,25.5
2022-09-29T08:33:18.586Z,41.6
2022-09-29T08:35:19.872Z,24.4
2022-09-29T08:37:21.049Z,26.8
2022-09-29T08:39:22.294Z,23.9
2022-09-29T08:41:23.548Z,23
2022-09-29T08:43:34.944Z,24.7
2022-09-29T08:45:29.399Z,18.2
2022-09-29T08:47:40.563Z,21.6
2022-09-29T08:51:41.565Z,31.4
2022-09-29T08:53:34.253Z,26.2
2022-09-29T08:55:35.514Z,22.9
2022-09-29T08:59:41.284Z,22.9
2022-09-29T09:01:42.539Z,18.1
2022-09-29T09:03:43.786Z,23.2
2022-09-29T09:05:45.062Z,27.8
2022-09-29T09:07:46.300Z,17.2
2022-09-29T09:09:47.568Z,14.7
2022-09-29T09:11:51.863Z,20.7
2022-09-29T09:13:53.022Z,19.9
2022-09-29T09:15:54.175Z,17.1
2022-09-29T09:16:56.344Z,15
2022-09-29T09:20:58.597Z,16.9
2022-09-29T09:22:59.757Z,22.2
2022-09-29T09:25:04.070Z,17.2
2022-09-29T09:27:05.217Z,17.8
2022-09-29T09:29:06.332Z,26.8
2022-09-29T09:31:07.590Z,16.9
2022-09-29T09:33:08.617Z,21.5
2022-09-29T09:35:21.032Z,19.2
2022-09-29T09:37:10.885Z,25
2022-09-29T09:39:15.189Z,21.1
2022-09-29T09:41:16.322Z,23.3
2022-09-29T09:43:17.446Z,22.8
2022-09-29T09:45:18.584Z,22
2022-09-29T09:47:19.728Z,28.7
2022-09-29T09:49:20.995Z,20.4
2022-09-29T09:55:27.389Z,23.2
2022-09-29T09:57:28.551Z,25.3
2022-09-29T09:59:29.673Z,18.9
2022-09-29T10:01:30.859Z,27
2022-09-29T10:03:31.911Z,18.6
2022-09-29T10:05:33.040Z,19.1
2022-09-29T10:07:37.346Z,23.1
2022-09-29T10:09:38.545Z,19.8
2022-09-29T10:11:39.576Z,25.9
2022-09-29T10:14:07.580Z,17
2022-09-29T10:16:08.743Z,23.3
2022-09-29T10:18:09.798Z,18.3
2022-09-29T10:20:14.103Z,19.8
2022-09-29T10:22:15.325Z,20.5
2022-09-29T10:24:16.375Z,23.8
2022-09-29T10:26:17.424Z,20.8
2022-09-29T10:28:18.538Z,19.6
2022-09-29T10:30:19.745Z,23.4
2022-09-29T10:32:20.781Z,39.5
2022-09-29T10:34:25.047Z,37
2022-09-29T10:36:26.166Z,18.2
2022-09-29T10:38:27.278Z,26.4
2022-09-29T10:40:28.378Z,19.2
2022-09-29T10:42:29.523Z,22
2022-09-29T10:44:30.597Z,19.4
2022-09-29T10:46:31.690Z,19.3
2022-09-29T10:48:35.981Z,17.5
2022-09-29T10:50:37.724Z,13.2
2022-09-29T10:54:39.282Z,18.8
2022-09-29T10:56:40.383Z,17.3
2022-09-29T10:58:57.774Z,12.9
2022-09-29T11:00:42.572Z,16.7
2022-09-29T11:02:46.907Z,22.3
2022-09-29T11:04:47.932Z,15.3
2022-09-29T11:06:49.047Z,23.3
2022-09-29T11:07:51.184Z,12.9
2022-09-29T11:09:52.282Z,13.8
2022-09-29T11:11:57.919Z,9.8
2022-09-29T11:13:54.437Z,14.3
2022-09-29T11:15:59.397Z,12.2
2022-09-29T11:18:00.550Z,17.3
2022-09-29T11:20:01.644Z,11.4
2022-09-29T11:26:04.859Z,15.2
2022-09-29T11:28:05.952Z,17.4
2022-09-29T11:30:10.263Z,29.5
2022-09-29T11:32:13.422Z,23.8
2022-09-29T11:34:12.456Z,16.6
2022-09-29T11:36:13.596Z,19.8
2022-09-29T11:38:14.696Z,17
2022-09-29T11:40:15.793Z,11.1
2022-09-29T11:42:16.938Z,16.4
2022-09-29T11:44:21.331Z,10.2
2022-09-29T11:46:22.403Z,15.3
2022-09-29T11:50:24.590Z,17.8
2022-09-29T11:52:25.718Z,12.3
2022-09-29T12:02:36.150Z,7.1
2022-09-29T12:03:38.174Z,9.9
2022-09-29T12:05:39.298Z,12
2022-09-29T12:07:40.456Z,8.9
2022-09-29T12:09:41.664Z,11.3
2022-09-29T12:12:04.921Z,13.9
2022-09-29T12:13:46.997Z,13.5
2022-09-29T12:15:48.151Z,7.4
2022-09-29T12:17:49.284Z,9.1
2022-09-29T12:19:50.524Z,15
2022-09-29T12:21:51.654Z,5.1
2022-09-29T12:23:52.787Z,6
2022-09-29T12:25:57.092Z,7
2022-09-29T12:27:58.430Z,8.3
2022-09-29T12:29:59.396Z,6.1
2022-09-29T12:32:00.509Z,8.9
2022-09-29T12:34:01.663Z,7
2022-09-29T12:36:02.782Z,11.5
2022-09-29T12:38:03.925Z,7.2
2022-09-29T12:40:08.342Z,11.4
2022-09-29T12:42:09.357Z,7.7
2022-09-29T12:44:10.452Z,6.4
2022-09-29T12:54:19.293Z,12.2
2022-09-29T12:56:20.389Z,5.1
2022-09-29T12:58:21.510Z,7.5
2022-09-29T13:03:25.911Z,2.4
2022-09-29T13:05:27.021Z,3
2022-09-29T13:07:31.341Z,4.8
2022-09-29T13:15:35.868Z,3.7
2022-09-29T13:21:42.348Z,9.7
2022-09-29T13:23:43.467Z,6.9
2022-09-29T13:25:44.597Z,4.3
2022-09-29T13:27:45.713Z,5
2022-09-29T13:29:46.846Z,7
2022-09-29T13:31:47.949Z,9
2022-09-29T13:33:49.082Z,4.5
2022-09-29T13:39:59.444Z,4
2022-09-29T13:41:56.762Z,7.1
2022-09-29T13:43:57.841Z,8.2
2022-09-29T13:45:59.018Z,4.7
2022-09-29T13:48:00.132Z,2.4
2022-09-29T13:52:05.513Z,2.4
2022-09-29T13:54:06.630Z,2
2022-09-29T14:00:35.579Z,4.4
2022-09-29T14:04:40.999Z,12.2
2022-09-29T14:06:42.127Z,6.3
2022-09-29T14:08:43.247Z,6.2
2022-09-29T14:10:44.363Z,12.3
2022-09-29T14:12:46.628Z,10.8
2022-09-29T14:14:46.594Z,10.1
2022-09-29T14:16:50.915Z,5.8
2022-09-29T14:18:52.015Z,6.6
2022-09-29T14:20:53.141Z,2.7
2022-09-29T14:22:54.266Z,4.5
2022-09-29T14:24:55.375Z,7.7
2022-09-29T14:26:56.492Z,10.1
2022-09-29T14:28:57.626Z,8.5
2022-09-29T14:31:01.991Z,5.1
2022-09-29T14:33:03.040Z,5.3
2022-09-29T14:35:04.145Z,16.7
2022-09-29T14:39:25.584Z,5.1
2022-09-29T14:41:07.510Z,9.4
2022-09-29T14:45:12.916Z,10.1
2022-09-29T14:47:14.049Z,9.6
2022-09-29T14:49:15.146Z,10.1
2022-09-29T14:50:17.304Z,9.9
2022-09-29T14:52:18.418Z,8.9
2022-09-29T14:54:19.544Z,11.2
2022-09-29T14:56:20.670Z,11.3
2022-09-29T14:58:24.995Z,7.1
2022-09-29T15:00:26.085Z,10.5
2022-09-29T15:06:29.471Z,9.4
2022-09-29T15:08:30.607Z,5.1
2022-09-29T15:10:31.749Z,3.6
2022-09-29T15:12:36.056Z,6
2022-09-29T15:14:41.559Z,5.8
2022-09-29T15:24:42.837Z,6.9
2022-09-29T15:26:47.149Z,6.7
2022-09-29T15:34:53.942Z,15.1
2022-09-29T15:36:52.830Z,6.1
2022-09-29T15:38:53.963Z,5.2
2022-09-29T15:40:58.274Z,5.4
2022-09-29T15:42:59.386Z,8.1
2022-09-29T15:45:00.529Z,9.8
2022-09-29T15:46:02.774Z,5
2022-09-29T15:48:03.848Z,4.4
2022-09-29T15:52:06.151Z,3.9
2022-09-29T15:58:12.820Z,19
2022-09-29T16:00:13.981Z,6.5
2022-09-29T16:02:15.234Z,4.1
2022-09-29T16:04:16.265Z,5.7
2022-09-29T16:06:17.421Z,5.9
2022-09-29T16:08:21.723Z,31.4
2022-09-29T16:10:23.009Z,12.8
2022-09-29T16:12:24.112Z,4.6
2022-09-29T16:14:25.259Z,6.3
2022-09-29T16:16:26.525Z,11.1
2022-09-29T16:18:27.563Z,5.1
2022-09-29T16:20:28.698Z,4.4
2022-09-29T16:22:33.126Z,7.1
2022-09-29T16:28:36.541Z,4.4
2022-09-29T16:30:37.699Z,9.5
2022-09-29T16:32:42.291Z,11.5
2022-09-29T16:34:40.019Z,5.4
2022-09-29T16:36:44.449Z,12.1
2022-09-29T16:40:46.753Z,16.8
2022-09-29T16:41:49.011Z,8.8
2022-09-29T16:43:50.134Z,9.7
2022-09-29T16:45:51.296Z,7.8
2022-09-29T16:47:52.432Z,8.8
2022-09-29T16:49:56.779Z,7.7
2022-09-29T16:51:57.945Z,7.1
2022-09-29T16:58:01.399Z,11.5
2022-09-29T17:02:06.120Z,10.1
2022-09-29T17:04:08.176Z,11.1
2022-09-29T17:06:09.310Z,16.5
2022-09-29T17:08:10.563Z,13.3
2022-09-29T17:14:14.221Z,15.3
2022-09-29T17:18:20.059Z,23.7
2022-09-29T17:20:21.358Z,10
2022-09-29T17:30:27.609Z,12.4
2022-09-29T17:39:02.787Z,24
2022-09-29T17:41:04.077Z,32.8
2022-09-29T17:45:09.870Z,21.9
2022-09-29T17:51:15.249Z,24.5
2022-09-29T17:53:16.466Z,13.1
2022-09-29T17:55:17.718Z,50.1
2022-09-29T17:57:18.950Z,37.5
2022-09-29T17:59:23.479Z,25.4
2022-09-29T18:01:24.813Z,54.2
2022-09-29T18:03:26.029Z,34.6
2022-09-29T18:05:27.274Z,33.5
2022-09-29T18:07:28.544Z,38.9
2022-09-29T18:09:29.848Z,52.7
2022-09-29T18:11:31.100Z,33.4
2022-09-29T18:13:35.605Z,43.2
2022-09-29T18:15:36.928Z,38.4
2022-09-29T18:17:38.150Z,32.8
2022-09-29T18:19:39.395Z,28.9
2022-09-29T18:21:40.645Z,31.1
2022-09-29T18:23:41.906Z,30.1
2022-09-29T18:25:47.237Z,20.9
2022-09-29T18:27:47.704Z,23.9
2022-09-29T18:29:48.974Z,20.7
2022-09-29T18:31:50.272Z,17.6
2022-09-29T18:32:52.479Z,18.4
2022-09-29T18:34:53.739Z,26.2
2022-09-29T18:36:55.010Z,25.5
2022-09-29T18:38:56.257Z,24.5
2022-09-29T18:41:00.773Z,24.4
2022-09-29T18:43:02.042Z,26.3
2022-09-29T18:49:05.842Z,26.5
2022-09-29T18:51:07.034Z,25.6
2022-09-29T18:55:12.818Z,34.5
2022-09-29T18:59:15.320Z,31.3
2022-09-29T19:01:16.604Z,37.8
2022-09-29T19:03:17.843Z,25.1
2022-09-29T19:05:19.115Z,23.6
2022-09-29T19:07:20.339Z,29.8
2022-09-29T19:11:26.131Z,52.5
2022-09-29T19:13:27.374Z,42.7
2022-09-29T19:15:31.755Z,36.6
2022-09-29T19:23:36.929Z,33.5
2022-09-29T19:25:38.201Z,35.6
2022-09-29T19:27:39.422Z,36.2
2022-09-29T19:28:41.701Z,35.6
2022-09-29T19:30:43.116Z,30.5
2022-09-29T19:32:44.178Z,49.6
2022-09-29T19:34:45.440Z,122.6
2022-09-29T19:36:49.966Z,56.2
2022-09-29T19:38:51.210Z,57.9
2022-09-29T19:40:52.485Z,49.8
2022-09-29T19:42:53.737Z,63.8
2022-09-29T19:44:54.974Z,69.6
2022-09-29T19:46:56.235Z,69.2
2022-09-29T19:48:57.479Z,61.7
2022-09-29T19:51:01.984Z,69.9
2022-09-29T19:53:03.359Z,66.6
2022-09-29T19:55:04.520Z,55.9
2022-09-29T19:59:10.164Z,33.2
2022-09-29T20:01:08.295Z,39.9
2022-09-29T20:03:09.576Z,40.9
2022-09-29T20:05:14.067Z,41.8
2022-09-29T20:07:15.329Z,49.5
2022-09-29T20:11:17.809Z,30.8
2022-09-29T20:13:19.064Z,31.6
2022-09-29T20:15:20.321Z,39.3
2022-09-29T20:17:21.619Z,39.6
2022-09-29T20:19:26.120Z,32.6
2022-09-29T20:21:27.374Z,31
2022-09-29T20:23:28.598Z,38.7
2022-09-29T20:24:30.841Z,21.7
2022-09-29T20:26:32.118Z,29.4
2022-09-29T20:28:33.378Z,24.6
2022-09-29T20:30:34.628Z,26.1
2022-09-29T20:36:41.678Z,25.6
2022-09-29T20:38:42.891Z,29.5
2022-09-29T20:40:44.130Z,31.1
2022-09-29T20:42:45.372Z,32.6
2022-09-29T20:44:46.602Z,21.6
2022-09-29T20:46:51.257Z,21.9
2022-09-29T20:48:52.384Z,29.6
2022-09-29T20:50:53.619Z,22
2022-09-29T20:52:54.893Z,25.8
2022-09-29T20:54:56.102Z,28.4
2022-09-29T20:56:57.348Z,29.9
2022-09-29T20:58:58.585Z,41.8
2022-09-29T21:01:03.111Z,25.4
2022-09-29T21:03:04.324Z,27.2
2022-09-29T21:05:05.601Z,25.4
2022-09-29T21:07:06.802Z,27
2022-09-29T21:09:08.094Z,22.7
2022-09-29T21:11:09.305Z,18.8
2022-09-29T21:13:10.535Z,19.9
2022-09-29T21:15:15.053Z,14.9
2022-09-29T21:17:16.281Z,17.3
2022-09-29T21:19:17.532Z,18.4
2022-09-29T21:21:45.973Z,19.9
2022-09-29T21:23:47.167Z,14.6
2022-09-29T21:27:52.907Z,23.4
2022-09-29T21:29:54.150Z,18
2022-09-29T21:31:55.399Z,11.8
2022-09-29T21:33:56.621Z,13.3
2022-09-29T21:35:57.872Z,16.3
2022-09-29T21:42:04.870Z,14.8
2022-09-29T21:44:06.110Z,19.9
2022-09-29T21:46:07.411Z,27
2022-09-29T21:48:08.605Z,12.6
2022-09-29T21:50:09.825Z,14.7
2022-09-29T21:54:12.310Z,15.4
2022-09-29T21:56:16.775Z,21.8
2022-09-29T21:58:18.002Z,14.9
2022-09-29T22:00:19.242Z,15.8
2022-09-29T22:02:20.552Z,22
2022-09-29T22:04:21.880Z,15.9
2022-09-29T22:06:22.960Z,18.1
2022-09-29T22:08:24.198Z,16.6
2022-09-29T22:10:28.701Z,22.5
2022-09-29T22:14:31.155Z,13.2
2022-09-29T22:15:33.403Z,17
2022-09-29T22:17:34.638Z,9.2
2022-09-29T22:21:37.140Z,6.7
2022-09-29T22:23:41.650Z,7.8
2022-09-29T22:25:42.919Z,6.2
2022-09-29T22:27:44.157Z,10
2022-09-29T22:29:45.418Z,9.5
2022-09-29T22:31:46.683Z,5.6
2022-09-29T22:39:54.871Z,9.7
2022-09-29T22:41:56.107Z,11.3
2022-09-29T22:43:57.329Z,4.9
2022-09-29T22:45:58.577Z,6.2
2022-09-29T22:47:59.694Z,10.6
2022-09-29T22:50:00.949Z,6.4
2022-09-29T22:54:06.704Z,13.1
2022-09-29T22:56:07.919Z,11.8
2022-09-29T22:58:09.176Z,10.9
2022-09-29T23:00:10.404Z,6.1
2022-09-29T23:02:11.719Z,8.9
2022-09-29T23:04:12.929Z,13.5
2022-09-29T23:06:17.342Z,5.7
2022-09-29T23:08:18.587Z,4.4
2022-09-29T23:10:19.795Z,9.7
2022-09-29T23:13:23.284Z,4.1
2022-09-29T23:19:30.223Z,5.1
2022-09-29T23:21:31.475Z,11.7
2022-09-29T23:23:32.704Z,3.3
2022-09-29T23:25:33.923Z,3.1
2022-09-29T23:27:35.135Z,7.4
2022-09-29T23:29:36.357Z,3.9
2022-09-29T23:31:37.744Z,6.6
2022-09-29T23:35:43.308Z,2.5
2022-09-29T23:37:44.531Z,3.3
2022-09-29T23:39:45.758Z,6.6
2022-09-29T23:41:48.556Z,8.6
2022-09-29T23:43:49.717Z,6.6
2022-09-29T23:45:50.954Z,3.5
2022-09-29T23:47:55.416Z,3.3
2022-09-29T23:49:56.644Z,6.6
2022-09-29T23:51:57.909Z,7.9
2022-09-29T23:53:59.127Z,5.4
2022-09-29T23:56:00.332Z,3.2
2022-09-29T23:58:01.637Z,4.8
